createdAt,value
2019-05-11T00:02:01.350Z,4.43
2019-05-11T00:04:30.562Z,4.00
2019-05-11T00:06:59.826Z,4.30
2019-05-11T00:09:28.948Z,3.87
2019-05-11T00:11:58.100Z,4.37
2019-05-11T00:14:27.651Z,4.53
2019-05-11T00:16:56.778Z,4.47
2019-05-11T00:19:25.969Z,4.87
2019-05-11T00:21:55.371Z,4.40
2019-05-11T00:24:24.621Z,4.70
2019-05-11T00:26:53.770Z,5.27
2019-05-11T00:29:22.963Z,4.30
2019-05-11T00:31:52.156Z,5.13
2019-05-11T00:34:21.385Z,4.70
2019-05-11T00:36:50.511Z,4.77
2019-05-11T00:39:19.660Z,4.77
2019-05-11T00:41:48.836Z,4.80
2019-05-11T00:44:18.342Z,5.40
2019-05-11T00:46:47.512Z,5.03
2019-05-11T00:49:16.668Z,5.37
2019-05-11T00:51:45.789Z,5.30
2019-05-11T00:54:14.958Z,5.70
2019-05-11T00:56:44.235Z,5.27
2019-05-11T00:59:21.508Z,5.70
2019-05-11T01:01:44.228Z,6.57
2019-05-11T01:04:13.384Z,5.23
2019-05-11T01:06:42.673Z,5.43
2019-05-11T01:09:11.796Z,5.93
2019-05-11T01:11:40.961Z,5.63
2019-05-11T01:14:10.117Z,5.07
2019-05-11T01:16:39.319Z,5.20
2019-05-11T01:19:08.488Z,4.90
2019-05-11T01:21:37.673Z,5.67
2019-05-11T01:24:07.003Z,5.60
2019-05-11T01:26:36.491Z,5.23
2019-05-11T01:29:05.662Z,5.20
2019-05-11T01:31:34.838Z,6.00
2019-05-11T01:34:03.988Z,5.77
2019-05-11T01:36:33.697Z,5.27
2019-05-11T01:39:02.853Z,5.17
2019-05-11T01:41:32.236Z,4.97
2019-05-11T01:44:01.515Z,4.83
2019-05-11T01:46:30.734Z,5.57
2019-05-11T01:48:59.946Z,5.20
2019-05-11T01:51:29.181Z,5.00
2019-05-11T01:53:58.635Z,5.73
2019-05-11T01:56:27.851Z,5.33
2019-05-11T01:58:56.967Z,5.87
2019-05-11T02:01:26.157Z,4.63
2019-05-11T02:03:55.360Z,4.40
2019-05-11T02:06:24.665Z,4.83
2019-05-11T02:08:53.780Z,4.57
2019-05-11T02:11:23.355Z,4.47
2019-05-11T02:13:52.453Z,4.80
2019-05-11T02:16:21.654Z,4.63
2019-05-11T02:18:50.813Z,5.67
2019-05-11T02:21:19.952Z,5.23
2019-05-11T02:23:49.080Z,4.80
2019-05-11T02:26:18.221Z,4.67
2019-05-11T02:28:47.431Z,4.60
2019-05-11T02:31:16.596Z,4.57
2019-05-11T02:33:45.846Z,4.77
2019-05-11T02:36:15.021Z,3.90
2019-05-11T02:38:44.254Z,3.70
2019-05-11T02:41:13.378Z,4.10
2019-05-11T02:43:42.561Z,3.30
2019-05-11T02:46:11.750Z,3.50
2019-05-11T02:48:41.010Z,3.70
2019-05-11T02:51:10.843Z,3.50
2019-05-11T02:53:43.097Z,3.40
2019-05-11T02:56:12.262Z,3.10
2019-05-11T02:58:41.956Z,3.30
2019-05-11T03:01:11.112Z,3.10
2019-05-11T03:03:40.366Z,3.50
2019-05-11T03:06:09.531Z,3.17
2019-05-11T03:08:38.709Z,3.37
2019-05-11T03:11:07.886Z,3.50
2019-05-11T03:13:37.118Z,3.47
2019-05-11T03:16:06.343Z,3.47
2019-05-11T03:18:35.514Z,3.13
2019-05-11T03:21:04.675Z,3.80
2019-05-11T03:23:33.896Z,4.00
2019-05-11T03:26:03.138Z,4.00
2019-05-11T03:28:32.248Z,4.17
2019-05-11T03:31:01.410Z,4.70
2019-05-11T03:33:30.594Z,3.87
2019-05-11T03:36:00.074Z,4.00
2019-05-11T03:38:29.236Z,4.27
2019-05-11T03:40:58.580Z,3.53
2019-05-11T03:43:27.767Z,3.83
2019-05-11T03:45:56.948Z,3.90
2019-05-11T03:48:26.108Z,3.80
2019-05-11T03:50:55.294Z,3.60
2019-05-11T03:53:24.446Z,4.10
2019-05-11T03:55:53.624Z,3.83
2019-05-11T03:58:25.970Z,3.90
2019-05-11T04:00:53.649Z,4.10
2019-05-11T04:03:22.848Z,4.33
2019-05-11T04:05:51.995Z,4.80
2019-05-11T04:08:21.117Z,4.00
2019-05-11T04:10:50.310Z,4.30
2019-05-11T04:13:19.450Z,4.60
2019-05-11T04:15:48.588Z,4.20
2019-05-11T04:18:17.692Z,3.83
2019-05-11T04:20:46.988Z,4.50
2019-05-11T04:23:16.271Z,4.30
2019-05-11T04:25:45.384Z,4.50
2019-05-11T04:28:14.551Z,4.13
2019-05-11T04:30:43.754Z,4.33
2019-05-11T04:33:12.881Z,4.47
2019-05-11T04:35:42.013Z,4.33
2019-05-11T04:38:11.159Z,3.77
2019-05-11T04:40:40.375Z,4.43
2019-05-11T04:43:09.555Z,3.83
2019-05-11T04:45:38.752Z,4.33
2019-05-11T04:48:08.025Z,3.90
2019-05-11T04:50:37.251Z,4.00
2019-05-11T04:53:06.412Z,4.00
2019-05-11T04:55:35.543Z,3.40
2019-05-11T04:58:04.737Z,3.50
2019-05-11T05:00:33.945Z,3.60
2019-05-11T05:03:04.207Z,3.13
2019-05-11T05:05:33.405Z,3.40
2019-05-11T05:08:09.741Z,3.90
2019-05-11T05:10:33.987Z,5.03
2019-05-11T05:13:10.508Z,3.83
2019-05-11T05:15:34.311Z,3.70
2019-05-11T05:18:03.713Z,3.60
2019-05-11T05:20:32.838Z,3.93
2019-05-11T05:23:02.125Z,4.13
2019-05-11T05:25:31.541Z,3.73
2019-05-11T05:28:00.760Z,4.70
2019-05-11T05:30:29.967Z,4.87
2019-05-11T05:32:59.358Z,3.50
2019-05-11T05:35:28.547Z,3.20
2019-05-11T05:37:57.741Z,3.27
2019-05-11T05:40:27.487Z,3.10
2019-05-11T05:42:56.659Z,2.60
2019-05-11T05:45:25.950Z,2.40
2019-05-11T05:47:55.187Z,2.40
2019-05-11T05:50:24.382Z,2.27
2019-05-11T05:52:53.525Z,1.57
2019-05-11T05:55:22.723Z,2.10
2019-05-11T05:57:51.853Z,2.27
2019-05-11T06:00:21.330Z,1.77
2019-05-11T06:02:50.504Z,2.00
2019-05-11T06:05:19.708Z,1.80
2019-05-11T06:07:48.968Z,1.70
2019-05-11T06:10:18.271Z,1.83
2019-05-11T06:12:47.406Z,1.77
2019-05-11T06:15:17.074Z,2.10
2019-05-11T06:17:46.285Z,2.10
2019-05-11T06:20:15.664Z,1.80
2019-05-11T06:22:44.878Z,1.67
2019-05-11T06:25:14.185Z,2.60
2019-05-11T06:27:43.434Z,1.90
2019-05-11T06:30:12.664Z,2.30
2019-05-11T06:32:41.870Z,1.97
2019-05-11T06:35:11.134Z,1.53
2019-05-11T06:37:40.461Z,1.67
2019-05-11T06:40:10.817Z,1.80
2019-05-11T06:42:39.975Z,1.53
2019-05-11T06:45:09.465Z,1.60
2019-05-11T06:47:38.708Z,1.33
2019-05-11T06:50:08.086Z,1.70
2019-05-11T06:52:37.254Z,2.13
2019-05-11T06:55:06.368Z,1.80
2019-05-11T06:57:35.748Z,1.50
2019-05-11T07:00:05.361Z,1.60
2019-05-11T07:02:34.734Z,1.67
2019-05-11T07:05:03.897Z,1.00
2019-05-11T07:07:46.561Z,1.63
2019-05-11T07:10:04.116Z,1.60
2019-05-11T07:12:33.316Z,1.43
2019-05-11T07:15:02.497Z,1.57
2019-05-11T07:17:31.684Z,1.53
2019-05-11T07:20:00.889Z,1.60
2019-05-11T07:22:30.328Z,1.57
2019-05-11T07:24:59.531Z,1.60
2019-05-11T07:27:28.953Z,1.63
2019-05-11T07:29:58.247Z,1.80
2019-05-11T07:32:29.339Z,1.70
2019-05-11T07:34:58.863Z,1.33
2019-05-11T07:37:28.170Z,1.97
2019-05-11T07:39:58.134Z,1.53
2019-05-11T07:42:28.566Z,1.80
2019-05-11T07:44:58.412Z,2.30
2019-05-11T07:47:27.912Z,1.60
2019-05-11T07:49:57.877Z,1.40
2019-05-11T07:52:28.754Z,1.70
2019-05-11T07:54:58.389Z,1.73
2019-05-11T07:57:28.528Z,1.50
2019-05-11T07:59:57.948Z,1.77
2019-05-11T08:02:28.529Z,1.60
2019-05-11T08:04:58.722Z,1.07
2019-05-11T08:07:28.631Z,1.50
2019-05-11T08:09:58.756Z,1.87
2019-05-11T08:12:28.603Z,1.60
2019-05-11T08:15:08.091Z,1.27
2019-05-11T08:17:28.796Z,1.00
2019-05-11T08:19:58.191Z,1.20
2019-05-11T08:22:28.447Z,1.17
2019-05-11T08:24:58.604Z,1.47
2019-05-11T08:27:28.575Z,1.40
2019-05-11T08:29:58.092Z,1.37
2019-05-11T08:32:28.607Z,1.20
2019-05-11T08:34:58.152Z,1.10
2019-05-11T08:37:28.410Z,1.00
2019-05-11T08:39:58.465Z,1.03
2019-05-11T08:42:28.847Z,1.10
2019-05-11T08:45:15.248Z,1.20
2019-05-11T08:47:29.070Z,1.40
2019-05-11T08:49:58.958Z,1.00
2019-05-11T08:52:28.352Z,1.40
2019-05-11T08:54:57.869Z,1.07
2019-05-11T08:57:28.568Z,1.17
2019-05-11T08:59:58.069Z,1.00
2019-05-11T09:02:27.950Z,1.00
2019-05-11T09:04:58.911Z,1.30
2019-05-11T09:07:28.270Z,1.17
2019-05-11T09:09:58.588Z,0.70
2019-05-11T09:12:28.761Z,0.80
2019-05-11T09:14:58.372Z,0.80
2019-05-11T09:17:28.926Z,0.60
2019-05-11T09:19:58.412Z,0.90
2019-05-11T09:22:28.484Z,0.70
2019-05-11T09:24:58.386Z,0.70
2019-05-11T09:27:28.607Z,0.63
2019-05-11T09:29:58.746Z,0.53
2019-05-11T09:32:28.636Z,0.63
2019-05-11T09:35:04.185Z,0.93
2019-05-11T09:37:33.428Z,1.10
2019-05-11T09:40:03.123Z,1.10
2019-05-11T09:42:35.318Z,0.67
2019-05-11T09:45:04.734Z,0.60
2019-05-11T09:47:34.034Z,0.67
2019-05-11T09:50:03.248Z,0.83
2019-05-11T09:52:32.862Z,0.60
2019-05-11T09:55:02.077Z,0.50
2019-05-11T09:57:31.274Z,0.50
2019-05-11T10:00:00.413Z,0.70
2019-05-11T10:02:29.663Z,0.80
2019-05-11T10:04:58.836Z,0.30
2019-05-11T10:07:28.924Z,0.40
2019-05-11T10:09:59.127Z,0.70
2019-05-11T10:12:28.731Z,0.40
2019-05-11T10:14:59.124Z,0.43
2019-05-11T10:17:28.862Z,0.43
2019-05-11T10:19:58.445Z,0.27
2019-05-11T10:22:27.937Z,0.50
2019-05-11T10:24:58.280Z,0.50
2019-05-11T10:27:28.120Z,0.63
2019-05-11T10:29:58.942Z,0.57
2019-05-11T10:32:28.792Z,0.40
2019-05-11T10:34:58.469Z,0.60
2019-05-11T10:37:28.338Z,0.30
2019-05-11T10:39:57.887Z,0.60
2019-05-11T10:42:28.394Z,0.47
2019-05-11T10:44:58.406Z,0.70
2019-05-11T10:47:27.877Z,0.80
2019-05-11T10:49:57.917Z,0.80
2019-05-11T10:52:28.583Z,0.90
2019-05-11T10:54:58.702Z,0.63
2019-05-11T10:57:28.382Z,0.30
2019-05-11T10:59:58.052Z,0.35
2019-05-11T11:02:28.002Z,0.33
2019-05-11T11:04:58.906Z,0.40
2019-05-11T11:07:29.029Z,0.42
2019-05-11T11:09:58.235Z,0.30
2019-05-11T11:12:27.998Z,0.40
2019-05-11T11:14:58.697Z,0.28
2019-05-11T11:17:28.753Z,0.50
2019-05-11T11:19:58.196Z,0.60
2019-05-11T11:22:36.988Z,0.50
2019-05-11T11:24:59.015Z,0.33
2019-05-11T11:27:29.187Z,0.30
2019-05-11T11:29:58.444Z,0.30
2019-05-11T11:32:28.017Z,0.85
2019-05-11T11:34:57.922Z,0.30
2019-05-11T11:37:28.135Z,0.40
2019-05-11T11:39:58.148Z,0.33
2019-05-11T11:42:28.352Z,0.45
2019-05-11T11:44:58.789Z,0.70
2019-05-11T11:47:28.231Z,0.50
2019-05-11T11:49:58.370Z,0.40
2019-05-11T11:52:27.786Z,0.40
2019-05-11T11:54:58.612Z,0.65
2019-05-11T11:57:28.373Z,0.40
2019-05-11T11:59:58.761Z,0.93
2019-05-11T12:02:28.086Z,0.40
2019-05-11T12:04:58.127Z,0.70
2019-05-11T12:07:28.529Z,0.80
2019-05-11T12:09:58.745Z,0.63
2019-05-11T12:12:28.094Z,0.40
2019-05-11T12:14:58.429Z,0.60
2019-05-11T12:17:28.571Z,0.60
2019-05-11T12:19:58.570Z,0.70
2019-05-11T12:22:28.116Z,0.20
2019-05-11T12:24:58.910Z,0.40
2019-05-11T12:27:28.654Z,0.30
2019-05-11T12:29:58.325Z,0.33
2019-05-11T12:32:49.159Z,0.30
2019-05-11T12:35:18.719Z,0.20
2019-05-11T12:37:48.694Z,0.50
2019-05-11T12:40:18.635Z,1.40
2019-05-11T12:42:48.883Z,2.22
2019-05-11T12:45:18.826Z,2.42
2019-05-11T12:47:48.411Z,0.70
2019-05-11T12:50:18.684Z,0.53
2019-05-11T12:52:51.258Z,1.02
2019-05-11T12:55:20.719Z,1.67
2019-05-11T12:57:49.898Z,1.27
2019-05-11T13:00:20.142Z,1.40
2019-05-11T13:02:49.403Z,1.00
2019-05-11T13:05:18.623Z,1.70
2019-05-11T13:07:48.386Z,1.07
2019-05-11T13:10:18.010Z,1.43
2019-05-11T13:12:49.259Z,1.60
2019-05-11T13:15:18.112Z,1.00
2019-05-11T13:17:49.211Z,1.33
2019-05-11T13:20:18.507Z,1.07
2019-05-11T13:22:48.847Z,1.00
2019-05-11T13:25:18.357Z,0.97
2019-05-11T13:27:49.262Z,0.80
2019-05-11T13:30:18.962Z,0.97
2019-05-11T13:32:48.965Z,1.13
2019-05-11T13:35:18.588Z,0.90
2019-05-11T13:37:48.052Z,0.67
2019-05-11T13:40:18.521Z,0.63
2019-05-11T13:42:48.998Z,0.70
2019-05-11T13:45:18.674Z,0.90
2019-05-11T13:47:54.792Z,0.60
2019-05-11T13:50:18.959Z,0.50
2019-05-11T13:52:48.162Z,0.70
2019-05-11T13:55:18.159Z,0.80
2019-05-11T13:57:48.602Z,0.60
2019-05-11T14:00:18.280Z,0.67
2019-05-11T14:02:48.604Z,0.60
2019-05-11T14:05:18.184Z,0.83
2019-05-11T14:07:48.243Z,0.63
2019-05-11T14:10:18.248Z,0.93
2019-05-11T14:12:47.902Z,1.20
2019-05-11T14:15:18.875Z,1.10
2019-05-11T14:17:48.858Z,1.13
2019-05-11T14:20:19.431Z,1.07
2019-05-11T14:22:48.619Z,1.03
2019-05-11T14:25:18.577Z,1.03
2019-05-11T14:27:48.305Z,1.10
2019-05-11T14:30:19.073Z,1.00
2019-05-11T14:32:48.545Z,1.00
2019-05-11T14:35:18.906Z,0.83
2019-05-11T14:37:48.750Z,0.90
2019-05-11T14:40:18.406Z,1.17
2019-05-11T14:42:48.923Z,0.93
2019-05-11T14:45:18.678Z,0.53
2019-05-11T14:47:48.245Z,0.83
2019-05-11T14:50:18.794Z,1.27
2019-05-11T14:52:49.368Z,0.90
2019-05-11T14:55:18.719Z,0.83
2019-05-11T14:57:48.783Z,0.70
2019-05-11T15:00:18.895Z,1.20
2019-05-11T15:02:49.558Z,0.50
2019-05-11T15:05:20.778Z,1.00
2019-05-11T15:07:52.409Z,0.80
2019-05-11T15:10:22.256Z,1.17
2019-05-11T15:12:51.439Z,0.80
2019-05-11T15:15:20.894Z,1.30
2019-05-11T15:17:50.127Z,1.20
2019-05-11T15:20:19.841Z,1.60
2019-05-11T15:22:49.237Z,1.60
2019-05-11T15:25:19.750Z,1.60
2019-05-11T15:27:49.386Z,1.67
2019-05-11T15:30:19.138Z,1.67
2019-05-11T15:32:48.608Z,2.13
2019-05-11T15:35:18.790Z,1.13
2019-05-11T15:37:48.457Z,1.10
2019-05-11T15:40:19.266Z,1.30
2019-05-11T15:42:48.935Z,1.37
2019-05-11T15:45:19.071Z,1.00
2019-05-11T15:47:48.897Z,2.53
2019-05-11T15:50:20.192Z,1.10
2019-05-11T15:52:49.367Z,1.53
2019-05-11T15:55:19.434Z,2.00
2019-05-11T15:57:48.742Z,1.90
2019-05-11T16:00:18.569Z,1.90
2019-05-11T16:02:49.075Z,2.57
2019-05-11T16:05:18.662Z,2.33
2019-05-11T16:07:49.211Z,1.80
2019-05-11T16:10:19.113Z,1.80
2019-05-11T16:12:48.828Z,1.70
2019-05-11T16:15:19.428Z,2.20
2019-05-11T16:17:49.379Z,2.00
2019-05-11T16:20:19.727Z,1.53
2019-05-11T16:22:49.191Z,1.90
2019-05-11T16:25:20.128Z,1.90
2019-05-11T16:27:51.364Z,2.30
2019-05-11T16:30:22.016Z,1.40
2019-05-11T16:32:51.314Z,1.90
2019-05-11T16:35:20.444Z,1.57
2019-05-11T16:37:49.656Z,1.57
2019-05-11T16:40:20.793Z,1.50
2019-05-11T16:42:50.015Z,1.30
2019-05-11T16:45:19.615Z,1.53
2019-05-11T16:47:49.040Z,2.10
2019-05-11T16:50:18.492Z,1.20
2019-05-11T16:52:48.473Z,1.20
2019-05-11T16:55:18.488Z,1.27
2019-05-11T16:57:48.647Z,1.37
2019-05-11T17:00:18.632Z,0.97
2019-05-11T17:02:49.036Z,1.00
2019-05-11T17:05:26.599Z,1.40
2019-05-11T17:07:49.568Z,1.07
2019-05-11T17:10:19.492Z,1.10
2019-05-11T17:12:49.098Z,1.00
2019-05-11T17:15:18.885Z,1.30
2019-05-11T17:17:51.870Z,1.40
2019-05-11T17:20:21.059Z,1.60
2019-05-11T17:22:53.728Z,1.30
2019-05-11T17:25:21.700Z,1.40
2019-05-11T17:27:50.991Z,1.47
2019-05-11T17:30:20.200Z,1.33
2019-05-11T17:32:50.228Z,1.13
2019-05-11T17:35:19.675Z,1.40
2019-05-11T17:37:49.078Z,1.30
2019-05-11T17:40:23.122Z,2.00
2019-05-11T17:42:53.266Z,1.73
2019-05-11T17:45:20.794Z,1.83
2019-05-11T17:47:50.121Z,1.40
2019-05-11T17:50:19.557Z,2.43
2019-05-11T17:52:48.805Z,2.10
2019-05-11T17:55:18.595Z,1.53
2019-05-11T17:57:49.554Z,1.83
2019-05-11T18:00:20.093Z,2.20
2019-05-11T18:02:49.753Z,1.90
2019-05-11T18:05:19.133Z,2.10
2019-05-11T18:07:48.347Z,2.00
2019-05-11T18:10:18.555Z,2.00
2019-05-11T18:12:48.577Z,1.77
2019-05-11T18:15:19.275Z,2.10
2019-05-11T18:17:49.042Z,2.27
2019-05-11T18:20:21.536Z,2.67
2019-05-11T18:22:49.472Z,2.70
2019-05-11T18:25:18.821Z,2.40
2019-05-11T18:27:48.524Z,2.40
2019-05-11T18:30:18.445Z,1.90
2019-05-11T18:32:48.951Z,2.20
2019-05-11T18:35:19.584Z,2.43
2019-05-11T18:37:49.056Z,2.30
2019-05-11T18:40:18.975Z,2.60
2019-05-11T18:42:48.971Z,2.40
2019-05-11T18:45:19.513Z,2.90
2019-05-11T18:47:49.185Z,1.93
2019-05-11T18:50:29.751Z,2.70
2019-05-11T18:52:50.256Z,2.40
2019-05-11T18:55:19.430Z,3.47
2019-05-11T18:57:51.482Z,2.10
2019-05-11T19:00:20.751Z,1.70
2019-05-11T19:02:50.087Z,2.13
2019-05-11T19:05:19.557Z,2.40
2019-05-11T19:07:48.893Z,2.23
2019-05-11T19:10:18.189Z,2.33
2019-05-11T19:12:48.762Z,2.33
2019-05-11T19:15:19.133Z,1.93
2019-05-11T19:17:49.212Z,2.40
2019-05-11T19:20:18.837Z,2.50
2019-05-11T19:22:48.541Z,2.20
2019-05-11T19:25:18.364Z,3.40
2019-05-11T19:27:50.272Z,3.57
2019-05-11T19:30:19.006Z,4.57
2019-05-11T19:32:48.878Z,3.07
2019-05-11T19:35:21.204Z,3.77
2019-05-11T19:37:49.148Z,2.53
2019-05-11T19:40:18.364Z,2.33
2019-05-11T19:42:54.661Z,1.93
2019-05-11T19:45:24.163Z,2.70
2019-05-11T19:47:53.372Z,2.00
2019-05-11T19:50:22.667Z,2.00
2019-05-11T19:52:51.890Z,2.17
2019-05-11T19:55:21.160Z,1.67
2019-05-11T19:57:50.390Z,1.70
2019-05-11T20:00:19.658Z,1.43
2019-05-11T20:02:49.109Z,2.00
2019-05-11T20:05:18.664Z,3.20
2019-05-11T20:07:48.820Z,2.27
2019-05-11T20:10:19.099Z,2.10
2019-05-11T20:12:48.744Z,2.10
2019-05-11T20:15:18.857Z,1.90
2019-05-11T20:17:48.942Z,1.30
2019-05-11T20:20:18.878Z,1.57
2019-05-11T20:22:48.753Z,1.40
2019-05-11T20:25:19.139Z,1.60
2019-05-11T20:27:49.033Z,1.03
2019-05-11T20:30:19.091Z,1.37
2019-05-11T20:32:49.159Z,1.37
2019-05-11T20:35:18.913Z,1.43
2019-05-11T20:37:48.152Z,1.20
2019-05-11T20:40:18.304Z,1.37
2019-05-11T20:42:48.710Z,0.97
2019-05-11T20:45:18.833Z,1.30
2019-05-11T20:47:48.871Z,1.20
2019-05-11T20:50:18.948Z,1.30
2019-05-11T20:52:48.392Z,1.20
2019-05-11T20:55:18.495Z,1.37
2019-05-11T20:57:48.678Z,1.60
2019-05-11T21:00:18.886Z,1.50
2019-05-11T21:02:49.115Z,1.60
2019-05-11T21:05:18.807Z,1.83
2019-05-11T21:07:48.087Z,1.40
2019-05-11T21:10:17.342Z,1.60
2019-05-11T21:12:46.526Z,1.57
2019-05-11T21:15:16.110Z,1.70
2019-05-11T21:17:45.272Z,2.00
2019-05-11T21:20:17.949Z,2.10
2019-05-11T21:22:48.608Z,2.83
2019-05-11T21:25:18.352Z,2.10
2019-05-11T21:27:48.707Z,2.90
2019-05-11T21:30:18.657Z,2.27
2019-05-11T21:32:47.968Z,2.53
2019-05-11T21:35:19.292Z,1.63
2019-05-11T21:37:48.790Z,2.47
2019-05-11T21:40:18.253Z,2.47
2019-05-11T21:42:47.726Z,2.20
2019-05-11T21:45:18.377Z,2.60
2019-05-11T21:47:48.954Z,2.40
2019-05-11T21:50:19.729Z,2.47
2019-05-11T21:52:49.024Z,2.80
2019-05-11T21:55:18.182Z,2.57
2019-05-11T21:57:49.680Z,2.50
2019-05-11T22:00:19.113Z,2.70
2019-05-11T22:02:48.701Z,2.80
2019-05-11T22:05:20.561Z,2.70
2019-05-11T22:07:49.121Z,3.07
2019-05-11T22:10:18.390Z,2.83
2019-05-11T22:12:49.021Z,3.57
2019-05-11T22:15:19.275Z,2.93
2019-05-11T22:17:48.487Z,2.87
2019-05-11T22:20:18.324Z,2.70
2019-05-11T22:22:47.885Z,3.10
2019-05-11T22:25:18.381Z,2.63
2019-05-11T22:27:48.803Z,2.87
2019-05-11T22:30:18.664Z,3.13
2019-05-11T22:32:48.053Z,3.13
2019-05-11T22:35:18.265Z,3.60
2019-05-11T22:37:49.103Z,2.93
2019-05-11T22:40:18.791Z,3.43
2019-05-11T22:42:48.016Z,3.33
2019-05-11T22:45:18.653Z,3.87
2019-05-11T22:47:48.216Z,3.40
2019-05-11T22:50:18.589Z,3.80
2019-05-11T22:52:48.672Z,3.97
2019-05-11T22:55:18.784Z,3.57
2019-05-11T22:57:48.660Z,3.73
2019-05-11T23:00:21.963Z,4.00
2019-05-11T23:02:51.110Z,4.13
2019-05-11T23:05:20.284Z,4.03
2019-05-11T23:07:49.527Z,4.43
2019-05-11T23:10:18.769Z,3.87
2019-05-11T23:12:48.362Z,3.67
2019-05-11T23:15:19.194Z,4.23
2019-05-11T23:17:48.429Z,3.90
2019-05-11T23:20:17.798Z,3.90
2019-05-11T23:22:56.696Z,3.67
2019-05-11T23:25:19.384Z,4.77
2019-05-11T23:27:49.050Z,4.23
2019-05-11T23:30:20.285Z,4.63
2019-05-11T23:32:49.861Z,4.60
2019-05-11T23:35:19.329Z,4.53
2019-05-11T23:37:49.772Z,4.63
2019-05-11T23:40:20.030Z,4.80
2019-05-11T23:42:49.476Z,4.80
2019-05-11T23:45:19.329Z,4.90
2019-05-11T23:47:49.249Z,6.67
2019-05-11T23:50:19.443Z,7.20
2019-05-11T23:53:04.189Z,5.63
2019-05-11T23:55:19.880Z,6.50
2019-05-11T23:57:49.253Z,4.10
